Big Rapids, Michigan
Current Conditions -  °F | °C
As of 3:15 AM on Saturday 25 Oct 2014 (Local Time) from KRQB Reporting Station
Haze Haze  
Wind Chill: 44°   Ceiling: 300
Heat Index: 44°   Visibility: 0.75mi
Dew Point: 44°   Wind: 0mph
Humidity: 100%   Direction: NA
Pressure: 29.84"   Gusts: NA
Location:  43.7°N, 85.48°W
Report Text: KRQB 250715Z AUTO 00000KT 3/4SM BR BKN003 BKN006 OVC037 07/07 A2984 RMK AO2 T00690069
Loading
Personal Weather Stations






























Interactive Weather Map New forecast layout! Learn more

10-Day Weather Forecast

Advertisements
Track Severe Weather on mobile